Chennai, India
Current Conditions -  °F | °C
As of 3:40 PM on Friday 19 Dec 2014 (Local Time) from VOMM Reporting Station
Scattered Clouds Scattered Clouds  
Wind Chill: 81°   Ceiling: Unl
Heat Index: 84°   Visibility: 4mi
Dew Point: 70°   Wind: 14mph
Humidity: 70%   Direction: 40°NE
Pressure: 29.91"   Gusts: 25mph
Location:  13.06°N, 80.25°E
Report Text: VOMM 191040Z 04012G22KT 6000 SCT018 SCT100 27/21 Q1013 NOSIG
Loading
Personal Weather Stations






























Interactive Weather Map New forecast layout! Learn more

10-Day Weather Forecast

Advertisements
Track Severe Weather on mobile